createdAt,value
2023-05-18T00:02:00.754Z,53.21
2023-05-18T00:04:28.907Z,53.71
2023-05-18T00:06:58.699Z,53.72
2023-05-18T00:09:26.261Z,53.81
2023-05-18T00:11:53.621Z,53.42
2023-05-18T00:14:20.391Z,53.18
2023-05-18T00:16:47.462Z,53.53
2023-05-18T00:19:15.043Z,54.37
2023-05-18T00:21:48.360Z,54.39
2023-05-18T00:24:15.791Z,53.95
2023-05-18T00:26:43.853Z,54.44
2023-05-18T00:29:10.479Z,54.07
2023-05-18T00:31:39.270Z,54.64
2023-05-18T00:34:07.094Z,55.44
2023-05-18T00:36:33.899Z,55.11
2023-05-18T00:39:00.444Z,55.08
2023-05-18T00:41:27.662Z,55.11
2023-05-18T00:43:54.726Z,55.50
2023-05-18T00:46:22.113Z,55.64
2023-05-18T00:48:50.562Z,55.08
2023-05-18T00:51:20.928Z,56.05
2023-05-18T00:53:47.655Z,56.19
2023-05-18T00:56:15.224Z,56.13
2023-05-18T00:58:42.535Z,56.60
2023-05-18T01:01:12.111Z,56.81
2023-05-18T01:07:26.563Z,57.30
2023-05-18T01:09:54.313Z,57.17
2023-05-18T01:12:32.860Z,56.87
2023-05-18T01:15:16.493Z,56.88
2023-05-18T01:18:00.646Z,57.22
2023-05-18T01:20:46.395Z,57.07
2023-05-18T01:23:45.833Z,56.94
2023-05-18T01:26:15.192Z,57.42
2023-05-18T01:28:46.766Z,57.23
2023-05-18T01:31:16.091Z,57.47
2023-05-18T01:33:43.562Z,57.70
2023-05-18T01:36:10.887Z,57.82
2023-05-18T01:38:38.677Z,57.93
2023-05-18T01:41:26.215Z,57.46
2023-05-18T01:44:15.829Z,58.12
